sensor_id;sensor_type;location;lat;lon;timestamp;temperature;humidity
38008;DHT22;75335;50.812;12.376;2024-02-21T00:01:40;7.70;83.70
38008;DHT22;75335;50.812;12.376;2024-02-21T00:04:07;7.80;83.40
38008;DHT22;75335;50.812;12.376;2024-02-21T00:06:35;7.80;83.40
38008;DHT22;75335;50.812;12.376;2024-02-21T00:09:03;7.80;83.40
38008;DHT22;75335;50.812;12.376;2024-02-21T00:11:32;7.80;84.10
38008;DHT22;75335;50.812;12.376;2024-02-21T00:14:00;7.80;83.50
38008;DHT22;75335;50.812;12.376;2024-02-21T00:16:28;7.70;83.70
38008;DHT22;75335;50.812;12.376;2024-02-21T00:18:55;7.70;83.80
38008;DHT22;75335;50.812;12.376;2024-02-21T00:21:23;7.70;83.70
38008;DHT22;75335;50.812;12.376;2024-02-21T00:23:55;7.70;83.20
38008;DHT22;75335;50.812;12.376;2024-02-21T00:26:23;7.80;83.10
38008;DHT22;75335;50.812;12.376;2024-02-21T00:28:54;7.80;83.40
38008;DHT22;75335;50.812;12.376;2024-02-21T00:31:21;7.80;83.50
38008;DHT22;75335;50.812;12.376;2024-02-21T00:33:49;7.80;83.70
38008;DHT22;75335;50.812;12.376;2024-02-21T00:36:17;7.80;83.20
38008;DHT22;75335;50.812;12.376;2024-02-21T00:38:45;7.80;83.40
38008;DHT22;75335;50.812;12.376;2024-02-21T00:41:13;7.70;83.60
38008;DHT22;75335;50.812;12.376;2024-02-21T00:43:42;7.70;83.80
38008;DHT22;75335;50.812;12.376;2024-02-21T00:46:11;7.80;83.70
38008;DHT22;75335;50.812;12.376;2024-02-21T00:48:39;7.70;83.70
38008;DHT22;75335;50.812;12.376;2024-02-21T00:51:07;7.70;84.00
38008;DHT22;75335;50.812;12.376;2024-02-21T00:53:34;7.70;83.70
38008;DHT22;75335;50.812;12.376;2024-02-21T00:56:04;7.60;84.00
38008;DHT22;75335;50.812;12.376;2024-02-21T00:58:33;7.60;84.20
38008;DHT22;75335;50.812;12.376;2024-02-21T01:01:00;7.60;84.10
38008;DHT22;75335;50.812;12.376;2024-02-21T01:03:30;7.50;84.50
38008;DHT22;75335;50.812;12.376;2024-02-21T01:05:58;7.50;84.50
38008;DHT22;75335;50.812;12.376;2024-02-21T01:08:25;7.50;84.50
38008;DHT22;75335;50.812;12.376;2024-02-21T01:10:53;7.50;84.50
38008;DHT22;75335;50.812;12.376;2024-02-21T01:13:29;7.60;84.30
38008;DHT22;75335;50.812;12.376;2024-02-21T01:15:57;7.60;84.10
38008;DHT22;75335;50.812;12.376;2024-02-21T01:18:25;7.60;84.40
38008;DHT22;75335;50.812;12.376;2024-02-21T01:20:55;7.60;84.50
38008;DHT22;75335;50.812;12.376;2024-02-21T01:23:22;7.60;84.50
38008;DHT22;75335;50.812;12.376;2024-02-21T01:25:50;7.50;84.40
38008;DHT22;75335;50.812;12.376;2024-02-21T01:28:18;7.70;84.10
38008;DHT22;75335;50.812;12.376;2024-02-21T01:30:46;7.70;83.90
38008;DHT22;75335;50.812;12.376;2024-02-21T01:33:14;7.60;84.00
38008;DHT22;75335;50.812;12.376;2024-02-21T01:35:42;7.60;84.00
38008;DHT22;75335;50.812;12.376;2024-02-21T01:38:13;7.60;84.50
38008;DHT22;75335;50.812;12.376;2024-02-21T01:40:41;7.60;84.60
38008;DHT22;75335;50.812;12.376;2024-02-21T01:43:16;7.70;84.30
38008;DHT22;75335;50.812;12.376;2024-02-21T01:45:48;7.60;84.60
38008;DHT22;75335;50.812;12.376;2024-02-21T01:48:17;7.60;84.40
38008;DHT22;75335;50.812;12.376;2024-02-21T01:50:46;7.60;84.80
38008;DHT22;75335;50.812;12.376;2024-02-21T01:53:17;7.60;84.30
38008;DHT22;75335;50.812;12.376;2024-02-21T01:55:47;7.60;84.50
38008;DHT22;75335;50.812;12.376;2024-02-21T01:58:16;7.50;84.70
38008;DHT22;75335;50.812;12.376;2024-02-21T02:00:45;7.60;84.90
38008;DHT22;75335;50.812;12.376;2024-02-21T02:03:14;7.60;84.90
38008;DHT22;75335;50.812;12.376;2024-02-21T02:05:44;7.50;85.00
38008;DHT22;75335;50.812;12.376;2024-02-21T02:08:12;7.60;85.30
38008;DHT22;75335;50.812;12.376;2024-02-21T02:10:43;7.60;85.10
38008;DHT22;75335;50.812;12.376;2024-02-21T02:13:11;7.60;85.10
38008;DHT22;75335;50.812;12.376;2024-02-21T02:15:40;7.60;85.30
38008;DHT22;75335;50.812;12.376;2024-02-21T02:18:08;7.60;84.90
38008;DHT22;75335;50.812;12.376;2024-02-21T02:20:37;7.50;85.10
38008;DHT22;75335;50.812;12.376;2024-02-21T02:23:07;7.60;85.00
38008;DHT22;75335;50.812;12.376;2024-02-21T02:25:39;7.60;84.80
38008;DHT22;75335;50.812;12.376;2024-02-21T02:28:07;7.60;85.10
38008;DHT22;75335;50.812;12.376;2024-02-21T02:30:35;7.60;84.80
38008;DHT22;75335;50.812;12.376;2024-02-21T02:33:04;7.60;85.10
38008;DHT22;75335;50.812;12.376;2024-02-21T02:35:32;7.60;85.20
38008;DHT22;75335;50.812;12.376;2024-02-21T02:38:01;7.70;84.80
38008;DHT22;75335;50.812;12.376;2024-02-21T02:40:29;7.60;85.00
38008;DHT22;75335;50.812;12.376;2024-02-21T02:42:59;7.60;84.80
38008;DHT22;75335;50.812;12.376;2024-02-21T02:45:26;7.60;85.10
38008;DHT22;75335;50.812;12.376;2024-02-21T02:47:54;7.50;85.40
38008;DHT22;75335;50.812;12.376;2024-02-21T02:50:23;7.50;85.20
38008;DHT22;75335;50.812;12.376;2024-02-21T02:52:50;7.60;85.00
38008;DHT22;75335;50.812;12.376;2024-02-21T02:55:18;7.60;84.90
38008;DHT22;75335;50.812;12.376;2024-02-21T02:57:46;7.60;84.80
38008;DHT22;75335;50.812;12.376;2024-02-21T03:00:16;7.60;84.80
38008;DHT22;75335;50.812;12.376;2024-02-21T03:02:46;7.70;85.00
38008;DHT22;75335;50.812;12.376;2024-02-21T03:05:14;7.60;84.60
38008;DHT22;75335;50.812;12.376;2024-02-21T03:07:44;7.70;84.50
38008;DHT22;75335;50.812;12.376;2024-02-21T03:10:12;7.60;84.50
38008;DHT22;75335;50.812;12.376;2024-02-21T03:12:42;7.70;84.50
38008;DHT22;75335;50.812;12.376;2024-02-21T03:15:11;7.60;85.00
38008;DHT22;75335;50.812;12.376;2024-02-21T03:17:41;7.60;85.20
38008;DHT22;75335;50.812;12.376;2024-02-21T03:20:09;7.60;85.10
38008;DHT22;75335;50.812;12.376;2024-02-21T03:22:37;7.70;85.30
38008;DHT22;75335;50.812;12.376;2024-02-21T03:25:06;7.60;85.40
38008;DHT22;75335;50.812;12.376;2024-02-21T03:27:35;7.60;85.60
38008;DHT22;75335;50.812;12.376;2024-02-21T03:30:04;7.70;85.10
38008;DHT22;75335;50.812;12.376;2024-02-21T03:32:33;7.60;85.90
38008;DHT22;75335;50.812;12.376;2024-02-21T03:35:03;7.60;85.90
38008;DHT22;75335;50.812;12.376;2024-02-21T03:37:31;7.60;86.20
38008;DHT22;75335;50.812;12.376;2024-02-21T03:39:58;7.60;86.30
38008;DHT22;75335;50.812;12.376;2024-02-21T03:42:26;7.60;86.70
38008;DHT22;75335;50.812;12.376;2024-02-21T03:44:56;7.60;87.10
38008;DHT22;75335;50.812;12.376;2024-02-21T03:47:24;7.50;87.60
38008;DHT22;75335;50.812;12.376;2024-02-21T03:49:51;7.60;88.00
38008;DHT22;75335;50.812;12.376;2024-02-21T03:52:21;7.50;89.00
38008;DHT22;75335;50.812;12.376;2024-02-21T03:54:48;7.50;89.40
38008;DHT22;75335;50.812;12.376;2024-02-21T03:57:16;7.50;89.90
38008;DHT22;75335;50.812;12.376;2024-02-21T03:59:44;7.40;90.30
38008;DHT22;75335;50.812;12.376;2024-02-21T04:02:12;7.40;90.20
38008;DHT22;75335;50.812;12.376;2024-02-21T04:04:43;7.30;90.70
38008;DHT22;75335;50.812;12.376;2024-02-21T04:07:12;7.40;90.60
38008;DHT22;75335;50.812;12.376;2024-02-21T04:09:42;7.40;90.90
38008;DHT22;75335;50.812;12.376;2024-02-21T04:12:10;7.30;91.00
38008;DHT22;75335;50.812;12.376;2024-02-21T04:14:38;7.30;91.10
38008;DHT22;75335;50.812;12.376;2024-02-21T04:17:05;7.20;91.30
38008;DHT22;75335;50.812;12.376;2024-02-21T04:19:34;7.30;91.20
38008;DHT22;75335;50.812;12.376;2024-02-21T04:22:03;7.30;91.10
38008;DHT22;75335;50.812;12.376;2024-02-21T04:24:30;7.30;91.20
38008;DHT22;75335;50.812;12.376;2024-02-21T04:26:59;7.20;91.50
38008;DHT22;75335;50.812;12.376;2024-02-21T04:29:27;7.30;91.50
38008;DHT22;75335;50.812;12.376;2024-02-21T04:31:55;7.20;91.50
38008;DHT22;75335;50.812;12.376;2024-02-21T04:34:23;7.20;91.60
38008;DHT22;75335;50.812;12.376;2024-02-21T04:36:51;7.10;91.80
38008;DHT22;75335;50.812;12.376;2024-02-21T04:39:18;7.10;92.10
38008;DHT22;75335;50.812;12.376;2024-02-21T04:41:46;7.10;92.10
38008;DHT22;75335;50.812;12.376;2024-02-21T04:44:16;7.10;92.10
38008;DHT22;75335;50.812;12.376;2024-02-21T04:46:47;7.20;92.10
38008;DHT22;75335;50.812;12.376;2024-02-21T04:49:15;7.00;92.30
38008;DHT22;75335;50.812;12.376;2024-02-21T04:51:43;7.00;92.40
38008;DHT22;75335;50.812;12.376;2024-02-21T04:54:11;7.00;92.50
38008;DHT22;75335;50.812;12.376;2024-02-21T04:56:38;7.00;92.50
38008;DHT22;75335;50.812;12.376;2024-02-21T04:59:06;6.90;92.40
38008;DHT22;75335;50.812;12.376;2024-02-21T05:01:35;6.90;92.30
38008;DHT22;75335;50.812;12.376;2024-02-21T05:04:04;7.00;92.50
38008;DHT22;75335;50.812;12.376;2024-02-21T05:06:32;7.00;92.30
38008;DHT22;75335;50.812;12.376;2024-02-21T05:09:00;7.00;92.40
38008;DHT22;75335;50.812;12.376;2024-02-21T05:11:27;7.00;92.30
38008;DHT22;75335;50.812;12.376;2024-02-21T05:13:55;6.90;92.30
38008;DHT22;75335;50.812;12.376;2024-02-21T05:16:23;7.00;92.30
38008;DHT22;75335;50.812;12.376;2024-02-21T05:18:52;6.90;92.40
38008;DHT22;75335;50.812;12.376;2024-02-21T05:21:20;7.00;92.10
38008;DHT22;75335;50.812;12.376;2024-02-21T05:23:49;7.00;92.10
38008;DHT22;75335;50.812;12.376;2024-02-21T05:26:20;7.00;91.60
38008;DHT22;75335;50.812;12.376;2024-02-21T05:28:48;7.00;91.60
38008;DHT22;75335;50.812;12.376;2024-02-21T05:31:18;7.00;91.40
38008;DHT22;75335;50.812;12.376;2024-02-21T05:33:47;7.00;91.20
38008;DHT22;75335;50.812;12.376;2024-02-21T05:36:16;7.00;91.20
38008;DHT22;75335;50.812;12.376;2024-02-21T05:38:44;6.90;91.30
38008;DHT22;75335;50.812;12.376;2024-02-21T05:41:12;6.90;91.50
38008;DHT22;75335;50.812;12.376;2024-02-21T05:43:40;6.90;91.50
38008;DHT22;75335;50.812;12.376;2024-02-21T05:46:08;6.90;91.40
38008;DHT22;75335;50.812;12.376;2024-02-21T05:48:36;6.90;91.40
38008;DHT22;75335;50.812;12.376;2024-02-21T05:51:04;6.80;91.40
38008;DHT22;75335;50.812;12.376;2024-02-21T05:53:33;6.90;91.40
38008;DHT22;75335;50.812;12.376;2024-02-21T05:56:02;6.90;91.20
38008;DHT22;75335;50.812;12.376;2024-02-21T05:58:31;6.90;91.30
38008;DHT22;75335;50.812;12.376;2024-02-21T06:00:59;6.90;91.30
38008;DHT22;75335;50.812;12.376;2024-02-21T06:03:28;6.90;91.20
38008;DHT22;75335;50.812;12.376;2024-02-21T06:05:56;6.80;91.10
38008;DHT22;75335;50.812;12.376;2024-02-21T06:08:24;6.80;91.30
38008;DHT22;75335;50.812;12.376;2024-02-21T06:10:55;6.80;91.30
38008;DHT22;75335;50.812;12.376;2024-02-21T06:13:23;6.80;91.40
38008;DHT22;75335;50.812;12.376;2024-02-21T06:15:51;6.80;91.40
38008;DHT22;75335;50.812;12.376;2024-02-21T06:18:20;6.80;91.30
38008;DHT22;75335;50.812;12.376;2024-02-21T06:20:48;6.80;91.30
38008;DHT22;75335;50.812;12.376;2024-02-21T06:23:16;6.90;91.20
38008;DHT22;75335;50.812;12.376;2024-02-21T06:25:44;7.00;90.90
38008;DHT22;75335;50.812;12.376;2024-02-21T06:28:15;7.00;90.80
38008;DHT22;75335;50.812;12.376;2024-02-21T06:30:43;6.90;91.00
38008;DHT22;75335;50.812;12.376;2024-02-21T06:33:10;6.90;91.00
38008;DHT22;75335;50.812;12.376;2024-02-21T06:35:39;6.90;91.00
38008;DHT22;75335;50.812;12.376;2024-02-21T06:38:10;7.00;91.00
38008;DHT22;75335;50.812;12.376;2024-02-21T06:40:37;6.90;91.00
38008;DHT22;75335;50.812;12.376;2024-02-21T06:43:06;7.00;90.80
38008;DHT22;75335;50.812;12.376;2024-02-21T06:45:35;7.10;90.90
38008;DHT22;75335;50.812;12.376;2024-02-21T06:48:03;7.10;90.80
38008;DHT22;75335;50.812;12.376;2024-02-21T06:50:32;7.10;90.90
38008;DHT22;75335;50.812;12.376;2024-02-21T06:52:59;7.10;90.80
38008;DHT22;75335;50.812;12.376;2024-02-21T06:55:27;7.10;90.80
38008;DHT22;75335;50.812;12.376;2024-02-21T06:57:55;7.10;90.80
38008;DHT22;75335;50.812;12.376;2024-02-21T07:00:23;7.10;90.60
38008;DHT22;75335;50.812;12.376;2024-02-21T07:02:56;7.10;90.90
38008;DHT22;75335;50.812;12.376;2024-02-21T07:05:24;7.10;90.70
38008;DHT22;75335;50.812;12.376;2024-02-21T07:07:52;7.20;90.70
38008;DHT22;75335;50.812;12.376;2024-02-21T07:10:20;7.10;90.90
38008;DHT22;75335;50.812;12.376;2024-02-21T07:12:48;7.00;90.90
38008;DHT22;75335;50.812;12.376;2024-02-21T07:15:17;7.10;90.90
38008;DHT22;75335;50.812;12.376;2024-02-21T07:17:45;7.10;90.50
38008;DHT22;75335;50.812;12.376;2024-02-21T07:20:15;7.20;90.40
38008;DHT22;75335;50.812;12.376;2024-02-21T07:22:43;7.30;90.20
38008;DHT22;75335;50.812;12.376;2024-02-21T07:25:11;7.30;90.20
38008;DHT22;75335;50.812;12.376;2024-02-21T07:27:38;7.60;89.60
38008;DHT22;75335;50.812;12.376;2024-02-21T07:30:12;7.90;88.60
38008;DHT22;75335;50.812;12.376;2024-02-21T07:32:40;7.80;89.40
38008;DHT22;75335;50.812;12.376;2024-02-21T07:35:08;7.70;89.00
38008;DHT22;75335;50.812;12.376;2024-02-21T07:37:39;7.70;89.20
38008;DHT22;75335;50.812;12.376;2024-02-21T07:40:12;7.70;88.80
38008;DHT22;75335;50.812;12.376;2024-02-21T07:42:40;7.70;88.90
38008;DHT22;75335;50.812;12.376;2024-02-21T07:45:15;7.60;89.20
38008;DHT22;75335;50.812;12.376;2024-02-21T07:47:44;7.70;88.70
38008;DHT22;75335;50.812;12.376;2024-02-21T07:50:12;7.80;88.00
38008;DHT22;75335;50.812;12.376;2024-02-21T07:52:42;7.80;86.70
38008;DHT22;75335;50.812;12.376;2024-02-21T07:55:10;7.90;86.70
38008;DHT22;75335;50.812;12.376;2024-02-21T07:57:37;8.00;85.90
38008;DHT22;75335;50.812;12.376;2024-02-21T08:00:17;7.90;85.40
38008;DHT22;75335;50.812;12.376;2024-02-21T08:02:47;8.00;86.30
38008;DHT22;75335;50.812;12.376;2024-02-21T08:05:15;8.00;85.80
38008;DHT22;75335;50.812;12.376;2024-02-21T08:07:45;8.10;84.60
38008;DHT22;75335;50.812;12.376;2024-02-21T08:10:13;8.20;84.30
38008;DHT22;75335;50.812;12.376;2024-02-21T08:12:58;8.40;83.00
38008;DHT22;75335;50.812;12.376;2024-02-21T08:15:26;8.50;82.50
38008;DHT22;75335;50.812;12.376;2024-02-21T08:17:54;8.60;82.20
38008;DHT22;75335;50.812;12.376;2024-02-21T08:20:25;8.60;81.70
38008;DHT22;75335;50.812;12.376;2024-02-21T08:22:54;8.70;82.40
38008;DHT22;75335;50.812;12.376;2024-02-21T08:25:23;8.60;81.30
38008;DHT22;75335;50.812;12.376;2024-02-21T08:27:50;8.50;82.70
38008;DHT22;75335;50.812;12.376;2024-02-21T08:30:18;8.60;81.40
38008;DHT22;75335;50.812;12.376;2024-02-21T08:32:46;8.60;81.00
38008;DHT22;75335;50.812;12.376;2024-02-21T08:35:14;8.60;81.30
38008;DHT22;75335;50.812;12.376;2024-02-21T08:37:44;8.50;81.50
38008;DHT22;75335;50.812;12.376;2024-02-21T08:40:24;8.80;81.50
38008;DHT22;75335;50.812;12.376;2024-02-21T08:42:52;8.70;81.00
38008;DHT22;75335;50.812;12.376;2024-02-21T08:45:21;8.70;80.60
38008;DHT22;75335;50.812;12.376;2024-02-21T08:47:48;8.70;81.00
38008;DHT22;75335;50.812;12.376;2024-02-21T08:50:16;8.40;81.50
38008;DHT22;75335;50.812;12.376;2024-02-21T08:52:47;8.50;81.40
38008;DHT22;75335;50.812;12.376;2024-02-21T08:55:15;8.50;82.50
38008;DHT22;75335;50.812;12.376;2024-02-21T08:57:44;8.60;82.50
38008;DHT22;75335;50.812;12.376;2024-02-21T09:00:13;8.60;82.50
38008;DHT22;75335;50.812;12.376;2024-02-21T09:02:42;8.50;81.90
38008;DHT22;75335;50.812;12.376;2024-02-21T09:05:10;8.40;82.70
38008;DHT22;75335;50.812;12.376;2024-02-21T09:07:40;8.30;82.00
38008;DHT22;75335;50.812;12.376;2024-02-21T09:10:08;8.20;82.60
38008;DHT22;75335;50.812;12.376;2024-02-21T09:12:36;8.30;83.60
38008;DHT22;75335;50.812;12.376;2024-02-21T09:15:08;8.20;83.40
38008;DHT22;75335;50.812;12.376;2024-02-21T09:17:36;8.40;83.00
38008;DHT22;75335;50.812;12.376;2024-02-21T09:20:08;8.40;83.90
38008;DHT22;75335;50.812;12.376;2024-02-21T09:22:37;8.40;83.70
38008;DHT22;75335;50.812;12.376;2024-02-21T09:25:07;8.50;83.40
38008;DHT22;75335;50.812;12.376;2024-02-21T09:27:38;8.40;82.90
38008;DHT22;75335;50.812;12.376;2024-02-21T09:30:10;8.50;83.20
38008;DHT22;75335;50.812;12.376;2024-02-21T09:32:38;8.60;82.70
38008;DHT22;75335;50.812;12.376;2024-02-21T09:35:09;8.60;82.80
38008;DHT22;75335;50.812;12.376;2024-02-21T09:37:38;8.60;81.60
38008;DHT22;75335;50.812;12.376;2024-02-21T09:40:07;8.50;83.30
38008;DHT22;75335;50.812;12.376;2024-02-21T09:42:38;8.50;82.60
38008;DHT22;75335;50.812;12.376;2024-02-21T09:45:23;8.60;82.90
38008;DHT22;75335;50.812;12.376;2024-02-21T09:48:02;8.60;83.60
38008;DHT22;75335;50.812;12.376;2024-02-21T09:50:55;8.70;82.90
38008;DHT22;75335;50.812;12.376;2024-02-21T09:53:25;8.70;82.00
38008;DHT22;75335;50.812;12.376;2024-02-21T09:55:54;8.70;82.20
38008;DHT22;75335;50.812;12.376;2024-02-21T09:58:22;8.80;81.20
38008;DHT22;75335;50.812;12.376;2024-02-21T10:00:55;8.80;81.00
38008;DHT22;75335;50.812;12.376;2024-02-21T10:03:23;8.80;81.20
38008;DHT22;75335;50.812;12.376;2024-02-21T10:05:51;8.90;80.80
38008;DHT22;75335;50.812;12.376;2024-02-21T10:08:20;8.90;81.10
38008;DHT22;75335;50.812;12.376;2024-02-21T10:10:47;9.00;79.80
38008;DHT22;75335;50.812;12.376;2024-02-21T10:13:25;9.00;80.30
38008;DHT22;75335;50.812;12.376;2024-02-21T10:16:03;9.20;79.70
38008;DHT22;75335;50.812;12.376;2024-02-21T10:18:32;9.40;78.90
38008;DHT22;75335;50.812;12.376;2024-02-21T10:21:05;9.50;79.00
38008;DHT22;75335;50.812;12.376;2024-02-21T10:23:44;9.90;76.30
38008;DHT22;75335;50.812;12.376;2024-02-21T10:26:12;10.00;74.60
38008;DHT22;75335;50.812;12.376;2024-02-21T10:28:40;10.50;73.20
38008;DHT22;75335;50.812;12.376;2024-02-21T10:31:21;10.40;72.90
38008;DHT22;75335;50.812;12.376;2024-02-21T10:33:54;9.90;74.50
38008;DHT22;75335;50.812;12.376;2024-02-21T10:36:25;10.00;75.30
38008;DHT22;75335;50.812;12.376;2024-02-21T10:38:53;10.30;73.00
38008;DHT22;75335;50.812;12.376;2024-02-21T10:41:22;10.80;71.50
38008;DHT22;75335;50.812;12.376;2024-02-21T10:43:51;11.70;68.00
38008;DHT22;75335;50.812;12.376;2024-02-21T10:46:23;11.80;67.70
38008;DHT22;75335;50.812;12.376;2024-02-21T10:49:04;11.80;66.50
38008;DHT22;75335;50.812;12.376;2024-02-21T10:51:43;11.80;67.20
38008;DHT22;75335;50.812;12.376;2024-02-21T10:54:22;12.10;64.80
38008;DHT22;75335;50.812;12.376;2024-02-21T10:56:57;12.10;65.20
38008;DHT22;75335;50.812;12.376;2024-02-21T10:59:27;12.60;64.50
38008;DHT22;75335;50.812;12.376;2024-02-21T11:02:02;12.60;65.00
38008;DHT22;75335;50.812;12.376;2024-02-21T11:04:31;12.70;62.60
38008;DHT22;75335;50.812;12.376;2024-02-21T11:07:03;12.80;62.00
38008;DHT22;75335;50.812;12.376;2024-02-21T11:09:31;13.20;61.30
38008;DHT22;75335;50.812;12.376;2024-02-21T11:12:02;13.20;61.40
38008;DHT22;75335;50.812;12.376;2024-02-21T11:14:31;13.10;60.80
38008;DHT22;75335;50.812;12.376;2024-02-21T11:17:03;13.20;60.10
38008;DHT22;75335;50.812;12.376;2024-02-21T11:19:42;13.20;60.20
38008;DHT22;75335;50.812;12.376;2024-02-21T11:22:15;13.80;58.80
38008;DHT22;75335;50.812;12.376;2024-02-21T11:24:43;13.10;59.30
38008;DHT22;75335;50.812;12.376;2024-02-21T11:27:13;13.30;58.80
38008;DHT22;75335;50.812;12.376;2024-02-21T11:29:43;12.90;59.70
38008;DHT22;75335;50.812;12.376;2024-02-21T11:32:14;12.60;60.20
38008;DHT22;75335;50.812;12.376;2024-02-21T11:34:56;12.40;60.60
38008;DHT22;75335;50.812;12.376;2024-02-21T11:37:27;12.30;62.30
38008;DHT22;75335;50.812;12.376;2024-02-21T11:39:56;12.20;62.70
38008;DHT22;75335;50.812;12.376;2024-02-21T11:42:25;12.80;61.80
38008;DHT22;75335;50.812;12.376;2024-02-21T11:44:53;15.10;54.60
38008;DHT22;75335;50.812;12.376;2024-02-21T11:47:24;15.70;52.00
38008;DHT22;75335;50.812;12.376;2024-02-21T11:49:52;14.80;54.30
38008;DHT22;75335;50.812;12.376;2024-02-21T11:52:22;15.90;50.50
38008;DHT22;75335;50.812;12.376;2024-02-21T11:54:51;16.80;47.50
38008;DHT22;75335;50.812;12.376;2024-02-21T11:57:20;16.70;46.80
38008;DHT22;75335;50.812;12.376;2024-02-21T11:59:48;16.50;48.20
38008;DHT22;75335;50.812;12.376;2024-02-21T12:02:17;16.50;48.70
38008;DHT22;75335;50.812;12.376;2024-02-21T12:04:46;16.20;49.80
38008;DHT22;75335;50.812;12.376;2024-02-21T12:07:15;16.10;50.00
38008;DHT22;75335;50.812;12.376;2024-02-21T12:09:43;16.20;48.20
38008;DHT22;75335;50.812;12.376;2024-02-21T12:12:12;15.80;50.00
38008;DHT22;75335;50.812;12.376;2024-02-21T12:14:40;15.70;51.00
38008;DHT22;75335;50.812;12.376;2024-02-21T12:17:08;15.10;52.30
38008;DHT22;75335;50.812;12.376;2024-02-21T12:19:36;14.90;52.80
38008;DHT22;75335;50.812;12.376;2024-02-21T12:22:05;14.70;53.10
38008;DHT22;75335;50.812;12.376;2024-02-21T12:24:34;15.00;52.20
38008;DHT22;75335;50.812;12.376;2024-02-21T12:27:04;16.40;48.40
38008;DHT22;75335;50.812;12.376;2024-02-21T12:29:32;16.70;46.70
38008;DHT22;75335;50.812;12.376;2024-02-21T12:32:01;18.00;44.10
38008;DHT22;75335;50.812;12.376;2024-02-21T12:34:30;17.30;43.80
38008;DHT22;75335;50.812;12.376;2024-02-21T12:36:59;16.90;45.20
38008;DHT22;75335;50.812;12.376;2024-02-21T12:39:29;17.40;44.60
38008;DHT22;75335;50.812;12.376;2024-02-21T12:41:57;17.00;46.50
38008;DHT22;75335;50.812;12.376;2024-02-21T12:44:26;17.70;43.30
38008;DHT22;75335;50.812;12.376;2024-02-21T12:46:54;17.80;43.40
38008;DHT22;75335;50.812;12.376;2024-02-21T12:49:22;17.60;44.20
38008;DHT22;75335;50.812;12.376;2024-02-21T12:51:50;18.20;44.00
38008;DHT22;75335;50.812;12.376;2024-02-21T12:54:18;18.40;41.70
38008;DHT22;75335;50.812;12.376;2024-02-21T12:56:48;18.40;41.10
38008;DHT22;75335;50.812;12.376;2024-02-21T12:59:16;18.80;40.60
38008;DHT22;75335;50.812;12.376;2024-02-21T13:01:44;18.30;41.20
38008;DHT22;75335;50.812;12.376;2024-02-21T13:04:12;18.00;42.40
38008;DHT22;75335;50.812;12.376;2024-02-21T13:06:39;17.20;44.40
38008;DHT22;75335;50.812;12.376;2024-02-21T13:09:08;15.20;47.10
38008;DHT22;75335;50.812;12.376;2024-02-21T13:11:37;15.10;48.80
38008;DHT22;75335;50.812;12.376;2024-02-21T13:14:08;15.10;48.60
38008;DHT22;75335;50.812;12.376;2024-02-21T13:16:35;15.00;49.30
38008;DHT22;75335;50.812;12.376;2024-02-21T13:19:05;14.80;50.10
38008;DHT22;75335;50.812;12.376;2024-02-21T13:21:34;14.80;50.80
38008;DHT22;75335;50.812;12.376;2024-02-21T13:24:02;14.50;50.60
38008;DHT22;75335;50.812;12.376;2024-02-21T13:26:30;13.90;50.70
38008;DHT22;75335;50.812;12.376;2024-02-21T13:28:58;13.90;51.30
38008;DHT22;75335;50.812;12.376;2024-02-21T13:31:28;14.20;50.70
38008;DHT22;75335;50.812;12.376;2024-02-21T13:33:56;13.70;52.20
38008;DHT22;75335;50.812;12.376;2024-02-21T13:36:24;13.60;52.60
38008;DHT22;75335;50.812;12.376;2024-02-21T13:38:52;13.60;52.50
38008;DHT22;75335;50.812;12.376;2024-02-21T13:41:20;13.90;53.70
38008;DHT22;75335;50.812;12.376;2024-02-21T13:43:49;13.70;53.40
38008;DHT22;75335;50.812;12.376;2024-02-21T13:46:16;13.40;54.50
38008;DHT22;75335;50.812;12.376;2024-02-21T13:48:47;13.60;54.20
38008;DHT22;75335;50.812;12.376;2024-02-21T13:51:16;13.70;55.70
38008;DHT22;75335;50.812;12.376;2024-02-21T13:53:46;13.80;55.10
38008;DHT22;75335;50.812;12.376;2024-02-21T13:56:13;13.80;54.30
38008;DHT22;75335;50.812;12.376;2024-02-21T13:58:42;13.70;54.70
38008;DHT22;75335;50.812;12.376;2024-02-21T14:01:10;13.50;54.20
38008;DHT22;75335;50.812;12.376;2024-02-21T14:03:38;13.50;55.80
38008;DHT22;75335;50.812;12.376;2024-02-21T14:06:08;13.40;52.90
38008;DHT22;75335;50.812;12.376;2024-02-21T14:08:36;13.20;54.10
38008;DHT22;75335;50.812;12.376;2024-02-21T14:11:05;13.00;53.90
38008;DHT22;75335;50.812;12.376;2024-02-21T14:13:33;13.10;53.80
38008;DHT22;75335;50.812;12.376;2024-02-21T14:16:02;12.80;53.70
38008;DHT22;75335;50.812;12.376;2024-02-21T14:18:31;12.80;54.40
38008;DHT22;75335;50.812;12.376;2024-02-21T14:20:59;12.60;53.70
38008;DHT22;75335;50.812;12.376;2024-02-21T14:23:28;12.60;54.40
38008;DHT22;75335;50.812;12.376;2024-02-21T14:25:56;12.60;54.50
38008;DHT22;75335;50.812;12.376;2024-02-21T14:28:24;12.80;55.30
38008;DHT22;75335;50.812;12.376;2024-02-21T14:30:52;12.80;55.50
38008;DHT22;75335;50.812;12.376;2024-02-21T14:33:23;12.80;56.80
38008;DHT22;75335;50.812;12.376;2024-02-21T14:35:51;12.60;55.20
38008;DHT22;75335;50.812;12.376;2024-02-21T14:38:19;12.40;56.10
38008;DHT22;75335;50.812;12.376;2024-02-21T14:40:48;12.20;57.00
38008;DHT22;75335;50.812;12.376;2024-02-21T14:43:16;12.20;57.50
38008;DHT22;75335;50.812;12.376;2024-02-21T14:45:47;12.30;58.60
38008;DHT22;75335;50.812;12.376;2024-02-21T14:48:15;12.30;58.80
38008;DHT22;75335;50.812;12.376;2024-02-21T14:50:43;12.10;59.30
38008;DHT22;75335;50.812;12.376;2024-02-21T14:53:11;11.90;59.70
38008;DHT22;75335;50.812;12.376;2024-02-21T14:55:39;11.90;60.10
38008;DHT22;75335;50.812;12.376;2024-02-21T14:58:09;11.90;59.90
38008;DHT22;75335;50.812;12.376;2024-02-21T15:00:38;12.00;59.70
38008;DHT22;75335;50.812;12.376;2024-02-21T15:03:06;11.90;60.10
38008;DHT22;75335;50.812;12.376;2024-02-21T15:05:34;11.90;59.50
38008;DHT22;75335;50.812;12.376;2024-02-21T15:08:03;11.90;59.60
38008;DHT22;75335;50.812;12.376;2024-02-21T15:10:34;12.00;59.50
38008;DHT22;75335;50.812;12.376;2024-02-21T15:13:02;11.80;59.30
38008;DHT22;75335;50.812;12.376;2024-02-21T15:15:32;11.70;60.10
38008;DHT22;75335;50.812;12.376;2024-02-21T15:18:00;11.70;60.30
38008;DHT22;75335;50.812;12.376;2024-02-21T15:20:29;11.60;60.80
38008;DHT22;75335;50.812;12.376;2024-02-21T15:22:56;11.50;60.50
38008;DHT22;75335;50.812;12.376;2024-02-21T15:25:25;11.40;61.20
38008;DHT22;75335;50.812;12.376;2024-02-21T15:27:53;11.40;61.30
38008;DHT22;75335;50.812;12.376;2024-02-21T15:30:21;11.10;60.80
38008;DHT22;75335;50.812;12.376;2024-02-21T15:32:50;11.10;61.10
38008;DHT22;75335;50.812;12.376;2024-02-21T15:35:18;11.20;61.70
38008;DHT22;75335;50.812;12.376;2024-02-21T15:37:47;11.10;61.50